Time;durP1;ratioP1;P1;durP2;ratioP2;P2;SDS_P1;SDS_P2;PMS_P1;PMS_P2;Temp;Humidity;BMP_temperature;BMP_pressure;BME280_temperature;BME280_humidity;BME280_pressure;Samples;Min_cycle;Max_cycle;Signal;HPM_P1;HPM_P2
2023/02/17 00:00:20;;;;;;;146.70;124.45;;;;;;;-3.72;100.00;101928.91;5037316;28;20052;-79
2023/02/17 00:02:46;;;;;;;124.75;109.05;;;;;;;-3.78;100.00;101931.81;5037109;28;20128;-79
2023/02/17 00:05:13;;;;;;;121.68;108.05;;;;;;;-3.81;100.00;101934.59;5037155;28;20053;-79
2023/02/17 00:07:40;;;;;;;132.02;110.80;;;;;;;-3.75;100.00;101934.25;5037130;28;20119;-79
2023/02/17 00:10:08;;;;;;;122.47;108.35;;;;;;;-3.77;100.00;101933.50;5037155;28;20057;-79
2023/02/17 00:12:37;;;;;;;121.95;105.75;;;;;;;-3.76;100.00;101929.97;5033273;28;20049;-79
2023/02/17 00:15:05;;;;;;;108.20;96.70;;;;;;;-3.81;100.00;101932.84;5034334;28;20119;-79
2023/02/17 00:17:31;;;;;;;116.65;104.25;;;;;;;-3.80;100.00;101924.13;5033455;28;20107;-80
2023/02/17 00:19:58;;;;;;;118.20;67.10;;;;;;;-3.87;100.00;101928.00;5034079;28;20122;-79
2023/02/17 00:22:25;;;;;;;120.32;66.63;;;;;;;-3.89;100.00;101927.22;5033976;28;20534;-79
2023/02/17 00:24:52;;;;;;;157.07;96.10;;;;;;;-3.85;100.00;101920.09;5033759;28;20499;-79
2023/02/17 00:27:18;;;;;;;186.85;117.18;;;;;;;-3.85;100.00;101912.31;5034078;28;20041;-79
2023/02/17 00:29:47;;;;;;;153.10;115.68;;;;;;;-3.79;100.00;101904.19;5033614;28;20052;-79
2023/02/17 00:32:13;;;;;;;146.45;120.10;;;;;;;-3.84;100.00;101899.25;5033202;28;20049;-79
2023/02/17 00:34:40;;;;;;;154.95;115.40;;;;;;;-3.85;100.00;101897.56;5026332;28;20055;-79
2023/02/17 00:37:07;;;;;;;150.52;111.03;;;;;;;-3.91;100.00;101896.13;5033543;28;20502;-79
2023/02/17 00:39:33;;;;;;;142.75;110.72;;;;;;;-3.84;100.00;101890.63;5033647;28;20045;-79
2023/02/17 00:42:00;;;;;;;125.90;76.45;;;;;;;-3.86;100.00;101887.28;5033655;28;20049;-79
2023/02/17 00:44:27;;;;;;;128.07;73.95;;;;;;;-3.89;100.00;101882.25;5033945;28;20060;-79
2023/02/17 00:46:55;;;;;;;143.68;105.45;;;;;;;-3.88;100.00;101886.53;5034209;28;20111;-79
2023/02/17 00:49:24;;;;;;;149.75;112.18;;;;;;;-3.90;100.00;101881.44;5032808;28;20487;-79
2023/02/17 00:51:51;;;;;;;130.63;114.15;;;;;;;-3.98;100.00;101886.19;5033577;28;20114;-79
2023/02/17 00:54:19;;;;;;;128.38;110.43;;;;;;;-4.01;100.00;101879.41;5033151;28;20123;-79
2023/02/17 00:56:46;;;;;;;148.00;112.40;;;;;;;-4.04;100.00;101879.56;5033340;28;20045;-79
2023/02/17 00:59:12;;;;;;;146.38;116.30;;;;;;;-3.97;100.00;101882.66;5032819;28;20118;-79
2023/02/17 01:01:39;;;;;;;146.45;118.75;;;;;;;-3.98;100.00;101875.81;5032953;28;20049;-79
2023/02/17 01:04:07;;;;;;;127.40;77.25;;;;;;;-3.99;100.00;101876.75;5033320;28;20473;-79
2023/02/17 01:06:36;;;;;;;117.53;74.20;;;;;;;-3.99;100.00;101872.38;5033363;28;20466;-79
2023/02/17 01:09:04;;;;;;;120.43;73.53;;;;;;;-4.09;100.00;101870.34;5034042;28;20408;-79
2023/02/17 01:11:33;;;;;;;129.85;115.00;;;;;;;-4.11;100.00;101862.66;5032301;28;20050;-79
2023/02/17 01:14:00;;;;;;;119.35;68.47;;;;;;;-3.97;100.00;101860.13;5031991;28;20481;-79
2023/02/17 01:16:29;;;;;;;106.38;61.38;;;;;;;-3.95;100.00;101853.13;5033093;28;20454;-79
2023/02/17 01:18:56;;;;;;;107.30;63.33;;;;;;;-3.92;100.00;101852.09;5031543;28;20046;-79
2023/02/17 01:21:26;;;;;;;106.00;62.15;;;;;;;-3.89;100.00;101848.50;5032725;28;20415;-79
2023/02/17 01:23:56;;;;;;;112.63;69.60;;;;;;;-3.85;100.00;101852.59;5031532;28;20049;-79
2023/02/17 01:26:25;;;;;;;105.10;66.93;;;;;;;-3.89;100.00;101845.91;5025457;28;20107;-79
2023/02/17 01:28:52;;;;;;;107.35;66.03;;;;;;;-4.02;100.00;101844.00;5032427;28;20052;-79
2023/02/17 01:31:21;;;;;;;117.88;67.43;;;;;;;-3.93;100.00;101842.66;5032850;28;20045;-79
2023/02/17 01:33:48;;;;;;;111.25;61.80;;;;;;;-4.01;100.00;101843.06;5032746;28;20041;-79
2023/02/17 01:36:16;;;;;;;109.78;66.47;;;;;;;-3.96;100.00;101835.03;5032726;28;20054;-80
2023/02/17 01:38:45;;;;;;;108.00;65.75;;;;;;;-4.13;100.00;101840.31;5032610;28;20530;-80
2023/02/17 01:41:12;;;;;;;99.40;63.72;;;;;;;-4.04;100.00;101839.81;5032322;28;20124;-80
2023/02/17 01:43:39;;;;;;;123.45;71.57;;;;;;;-4.12;100.00;101831.59;5032693;28;20045;-80
2023/02/17 01:46:08;;;;;;;120.97;68.22;;;;;;;-4.03;100.00;101829.31;5032801;28;20049;-80
2023/02/17 01:48:38;;;;;;;147.25;91.63;;;;;;;-4.33;100.00;101831.00;5032081;28;20080;-79
2023/02/17 01:51:08;;;;;;;134.43;82.38;;;;;;;-4.14;100.00;101826.50;5032007;28;20095;-80
2023/02/17 01:53:39;;;;;;;150.48;87.05;;;;;;;-4.10;100.00;101828.00;5032378;28;20077;-80
2023/02/17 01:56:08;;;;;;;127.72;78.93;;;;;;;-4.03;100.00;101834.50;5032202;28;20057;-81
2023/02/17 01:58:35;;;;;;;127.68;78.25;;;;;;;-4.02;100.00;101825.84;5032869;28;20041;-80
2023/02/17 02:01:04;;;;;;;122.80;75.85;;;;;;;-4.20;100.00;101827.66;5032958;28;20045;-80
2023/02/17 02:03:34;;;;;;;103.72;62.75;;;;;;;-3.96;100.00;101816.88;5032335;28;20056;-80
2023/02/17 02:06:05;;;;;;;114.05;76.88;;;;;;;-4.15;100.00;101825.63;5031971;28;20045;-80
2023/02/17 02:08:38;;;;;;;109.88;66.85;;;;;;;-4.05;100.00;101812.19;5032930;28;20115;-79
2023/02/17 02:11:05;;;;;;;101.63;71.53;;;;;;;-4.24;100.00;101813.16;5031571;28;20119;-80
2023/02/17 02:13:33;;;;;;;115.35;71.18;;;;;;;-4.13;100.00;101807.41;5032369;28;20111;-80
2023/02/17 02:16:10;;;;;;;113.22;76.45;;;;;;;-4.07;100.00;101806.25;5031923;28;20079;-80
2023/02/17 02:18:50;;;;;;;110.35;70.32;;;;;;;-4.23;100.00;101803.66;5026444;28;20099;-80
2023/02/17 02:21:50;;;;;;;110.55;65.10;;;;;;;-4.28;100.00;101800.47;5031328;28;20053;-79
2023/02/17 02:24:43;;;;;;;109.90;71.43;;;;;;;-4.24;100.00;101786.38;5028715;28;20111;-80
2023/02/17 02:27:37;;;;;;;108.30;65.57;;;;;;;-4.10;100.00;101799.44;5028035;28;20485;-80
2023/02/17 02:30:26;;;;;;;98.55;62.42;;;;;;;-4.30;100.00;101803.13;5028636;28;20053;-80
2023/02/17 02:33:07;;;;;;;105.40;65.75;;;;;;;-4.14;100.00;101797.97;5028642;28;20095;-80
2023/02/17 02:35:45;;;;;;;115.25;68.22;;;;;;;-4.29;100.00;101793.63;5030253;28;20049;-80
2023/02/17 02:38:15;;;;;;;109.10;72.07;;;;;;;-4.28;100.00;101801.28;5031712;28;20199;-80
2023/02/17 02:40:46;;;;;;;159.40;98.60;;;;;;;-4.24;100.00;101791.59;5031791;28;20045;-80
2023/02/17 02:43:14;;;;;;;162.80;100.50;;;;;;;-4.07;100.00;101794.09;5029587;28;20053;-80
2023/02/17 02:45:41;;;;;;;163.10;100.68;;;;;;;-4.16;100.00;101786.81;5031667;28;20119;-80
2023/02/17 02:48:09;;;;;;;139.10;84.65;;;;;;;-4.17;100.00;101782.56;5030939;28;20590;-80
2023/02/17 02:50:55;;;;;;;164.90;92.82;;;;;;;-4.08;100.00;101791.59;5031476;28;20395;-80
2023/02/17 02:53:57;;;;;;;124.90;77.90;;;;;;;-4.19;100.00;101787.81;5031434;28;20045;-80
2023/02/17 02:56:37;;;;;;;143.60;78.68;;;;;;;-4.13;100.00;101771.09;5005832;28;20053;-80
2023/02/17 02:59:18;;;;;;;139.00;81.90;;;;;;;-4.23;100.00;101778.53;5031506;28;20041;-80
2023/02/17 03:01:51;;;;;;;135.50;86.07;;;;;;;-4.19;100.00;101780.03;5031240;28;20049;-80
2023/02/17 03:04:30;;;;;;;137.07;85.05;;;;;;;-4.34;100.00;101783.47;5031871;28;20123;-80
2023/02/17 03:07:01;;;;;;;132.68;75.10;;;;;;;-4.36;100.00;101787.91;5031314;28;20045;-80
2023/02/17 03:09:29;;;;;;;125.32;73.38;;;;;;;-4.25;100.00;101779.53;5031857;28;20053;-80
2023/02/17 03:11:57;;;;;;;130.63;82.47;;;;;;;-4.37;100.00;101773.25;5031355;28;20053;-80
2023/02/17 03:14:24;;;;;;;134.90;74.97;;;;;;;-4.28;100.00;101771.94;5031277;28;20057;-80
2023/02/17 03:16:51;;;;;;;136.02;81.78;;;;;;;-4.50;100.00;101780.88;5030604;28;20053;-80
2023/02/17 03:19:23;;;;;;;134.60;83.50;;;;;;;-4.29;100.00;101786.66;5029114;28;20115;-80
2023/02/17 03:21:53;;;;;;;131.90;79.72;;;;;;;-4.11;100.00;101784.81;5030632;28;20057;-80
2023/02/17 03:24:20;;;;;;;151.07;121.05;;;;;;;-4.18;100.00;101791.25;5030989;28;20576;-80
2023/02/17 03:26:47;;;;;;;136.18;111.97;;;;;;;-4.06;100.00;101792.34;5030732;28;20072;-80
2023/02/17 03:29:14;;;;;;;138.10;107.07;;;;;;;-4.13;100.00;101798.78;5031249;28;20041;-80
2023/02/17 03:31:41;;;;;;;128.13;102.80;;;;;;;-4.27;100.00;101802.13;5030800;28;20077;-80
2023/02/17 03:34:08;;;;;;;130.10;91.53;;;;;;;-4.10;100.00;101793.44;5031718;28;20052;-80
2023/02/17 03:36:36;;;;;;;140.60;104.28;;;;;;;-4.37;100.00;101799.19;5030526;28;20056;-80
2023/02/17 03:39:03;;;;;;;131.10;94.70;;;;;;;-4.22;100.00;101797.53;5031047;28;20045;-80
2023/02/17 03:41:30;;;;;;;129.50;90.53;;;;;;;-4.30;100.00;101804.88;5031029;28;20061;-80
2023/02/17 03:43:56;;;;;;;131.13;93.75;;;;;;;-4.41;100.00;101798.53;5031142;28;20130;-80
2023/02/17 03:46:23;;;;;;;149.95;107.55;;;;;;;-4.29;100.00;101806.59;5031788;28;20045;-80
2023/02/17 03:48:50;;;;;;;135.20;97.68;;;;;;;-4.24;100.00;101800.19;5033381;28;20050;-80
2023/02/17 03:51:19;;;;;;;135.57;97.55;;;;;;;-4.17;100.00;101798.97;5034673;28;20104;-80
2023/02/17 03:53:47;;;;;;;139.10;101.45;;;;;;;-4.10;100.00;101793.44;5034013;28;20045;-80
2023/02/17 03:56:15;;;;;;;127.22;99.15;;;;;;;-4.08;100.00;101792.44;5034728;28;20107;-80
2023/02/17 03:58:42;;;;;;;126.28;95.25;;;;;;;-3.95;100.00;101793.41;5033995;28;20049;-80
2023/02/17 04:01:11;;;;;;;126.78;86.20;;;;;;;-3.77;100.00;101799.34;5033988;28;20049;-80
2023/02/17 04:03:39;;;;;;;123.60;94.00;;;;;;;-3.55;100.00;101782.53;5034906;28;20045;-79
2023/02/17 04:06:07;;;;;;;123.70;93.07;;;;;;;-3.77;100.00;101783.75;5034327;28;20095;-79
2023/02/17 04:08:34;;;;;;;118.13;91.30;;;;;;;-3.23;100.00;101788.44;5035077;28;20046;-79
2023/02/17 04:11:03;;;;;;;120.38;85.50;;;;;;;-3.65;100.00;101790.00;5034313;28;20529;-80
2023/02/17 04:13:30;;;;;;;114.45;84.22;;;;;;;-3.51;100.00;101797.00;5034244;28;20073;-79
2023/02/17 04:15:58;;;;;;;110.22;85.30;;;;;;;-3.78;100.00;101797.66;5033651;28;20052;-80
2023/02/17 04:18:24;;;;;;;114.43;87.18;;;;;;;-3.88;100.00;101791.31;5034130;28;20042;-79
2023/02/17 04:20:51;;;;;;;111.13;80.70;;;;;;;-4.01;100.00;101793.75;5034080;28;20049;-79
2023/02/17 04:23:18;;;;;;;114.85;90.90;;;;;;;-3.78;100.00;101789.00;5034238;28;20041;-80
2023/02/17 04:25:46;;;;;;;112.50;83.68;;;;;;;-3.93;100.00;101788.97;5032061;28;20518;-80
2023/02/17 04:28:15;;;;;;;104.07;76.43;;;;;;;-3.81;100.00;101784.00;5034353;28;20498;-79
2023/02/17 04:30:43;;;;;;;98.55;59.13;;;;;;;-3.83;100.00;101794.50;5033910;28;20176;-80
2023/02/17 04:33:10;;;;;;;109.78;68.57;;;;;;;-3.50;100.00;101796.09;5033510;28;20046;-79
2023/02/17 04:35:36;;;;;;;133.60;76.82;;;;;;;-3.38;100.00;101797.97;5032639;28;20049;-79
2023/02/17 04:38:03;;;;;;;88.50;61.03;;;;;;;-3.02;100.00;101796.75;5034328;28;20592;-79
2023/02/17 04:40:30;;;;;;;94.90;63.15;;;;;;;-3.12;100.00;101798.19;5034354;28;20057;-79
2023/02/17 04:42:57;;;;;;;93.30;58.45;;;;;;;-3.19;100.00;101802.94;5033563;28;20159;-80
2023/02/17 04:45:25;;;;;;;83.60;64.88;;;;;;;-2.89;100.00;101805.47;5033380;28;20111;-79
2023/02/17 04:47:52;;;;;;;80.07;56.17;;;;;;;-2.80;100.00;101802.31;5033581;28;20522;-80
2023/02/17 04:50:19;;;;;;;117.60;79.70;;;;;;;-2.36;100.00;101811.78;5033044;28;20037;-79
2023/02/17 04:52:45;;;;;;;102.03;67.40;;;;;;;-2.38;100.00;101808.41;5030778;28;20408;-80
2023/02/17 04:55:12;;;;;;;93.50;63.47;;;;;;;-2.30;100.00;101807.94;5033380;28;20050;-79
2023/02/17 04:57:39;;;;;;;77.63;52.10;;;;;;;-0.96;100.00;101810.50;5033050;28;20053;-77
2023/02/17 05:00:07;;;;;;;97.32;68.32;;;;;;;-1.95;100.00;101808.31;5032342;28;20096;-79
2023/02/17 05:02:35;;;;;;;88.32;61.53;;;;;;;-1.94;100.00;101811.75;5032400;28;20052;-79
2023/02/17 05:05:02;;;;;;;90.22;58.42;;;;;;;-2.10;100.00;101807.50;5033462;28;20057;-79
2023/02/17 05:07:29;;;;;;;80.38;53.08;;;;;;;-1.94;100.00;101820.38;5031503;28;20049;-79
2023/02/17 05:09:56;;;;;;;80.47;55.28;;;;;;;-1.79;100.00;101815.97;4996835;28;20515;-79
2023/02/17 05:12:22;;;;;;;77.43;50.53;;;;;;;-1.70;100.00;101819.75;5032157;28;20038;-79
2023/02/17 05:14:49;;;;;;;79.82;53.45;;;;;;;-1.14;100.00;101815.19;4999517;28;20057;-79
2023/02/17 05:17:16;;;;;;;101.90;63.78;;;;;;;-0.96;100.00;101816.56;5032935;28;20045;-79
2023/02/17 05:19:44;;;;;;;95.95;66.85;;;;;;;-0.43;100.00;101816.41;5028021;28;20092;-79
2023/02/17 05:22:11;;;;;;;102.25;63.28;;;;;;;-0.15;100.00;101824.88;5031732;28;20103;-79
2023/02/17 05:24:37;;;;;;;104.50;67.20;;;;;;;0.73;100.00;101819.34;5005220;28;20107;-80
2023/02/17 05:27:04;;;;;;;103.00;66.82;;;;;;;0.71;100.00;101816.03;5032200;28;20045;-79
2023/02/17 05:29:31;;;;;;;98.55;66.03;;;;;;;0.30;100.00;101822.53;5032081;28;20057;-79
2023/02/17 05:31:57;;;;;;;95.28;61.17;;;;;;;0.68;100.00;101823.16;5032081;28;20045;-79
2023/02/17 05:34:24;;;;;;;101.55;64.60;;;;;;;1.19;100.00;101837.66;5031897;28;20080;-80
2023/02/17 05:36:52;;;;;;;112.88;68.80;;;;;;;1.53;100.00;101848.13;5032133;28;20049;-79
2023/02/17 05:39:19;;;;;;;95.05;64.13;;;;;;;2.01;100.00;101840.81;5032448;28;20511;-79
2023/02/17 05:41:46;;;;;;;102.05;63.92;;;;;;;1.88;100.00;101840.13;5033011;28;20042;-79
2023/02/17 05:44:12;;;;;;;95.53;62.78;;;;;;;1.67;100.00;101842.66;5032144;28;20053;-79
2023/02/17 05:46:39;;;;;;;102.20;64.75;;;;;;;1.60;100.00;101838.84;5029467;28;20053;-79
2023/02/17 05:49:06;;;;;;;104.88;62.90;;;;;;;1.98;100.00;101842.84;5032027;28;20123;-79
2023/02/17 05:51:32;;;;;;;97.28;62.50;;;;;;;2.59;100.00;101844.91;5030539;28;20057;-80
2023/02/17 05:54:01;;;;;;;99.95;63.65;;;;;;;2.73;100.00;101845.44;5030419;28;20046;-80
2023/02/17 05:56:28;;;;;;;100.22;64.10;;;;;;;2.74;100.00;101851.53;5030526;28;20049;-80
2023/02/17 05:58:54;;;;;;;101.55;64.47;;;;;;;2.79;100.00;101848.53;5028810;28;20489;-80
2023/02/17 06:01:21;;;;;;;111.65;67.53;;;;;;;2.50;100.00;101849.94;5030517;28;20049;-80
2023/02/17 06:03:48;;;;;;;98.05;62.75;;;;;;;2.86;100.00;101847.06;5031771;28;20041;-79
2023/02/17 06:06:15;;;;;;;101.28;62.67;;;;;;;2.71;100.00;101847.34;5028930;28;20462;-80
2023/02/17 06:08:42;;;;;;;100.95;63.63;;;;;;;3.01;100.00;101851.00;5030517;28;20103;-80
2023/02/17 06:11:10;;;;;;;96.05;63.65;;;;;;;3.55;100.00;101849.91;5027357;28;20084;-80
2023/02/17 06:13:37;;;;;;;97.30;63.45;;;;;;;3.62;100.00;101851.03;5029436;28;20049;-80
2023/02/17 06:16:04;;;;;;;96.05;63.47;;;;;;;3.76;100.00;101855.09;5029091;28;20564;-80
2023/02/17 06:18:31;;;;;;;102.85;62.75;;;;;;;3.91;100.00;101855.56;5030803;28;20518;-80
2023/02/17 06:20:58;;;;;;;97.55;66.32;;;;;;;4.08;100.00;101856.69;5031544;28;20103;-79
2023/02/17 06:23:26;;;;;;;92.22;61.85;;;;;;;4.29;100.00;101864.47;5026962;28;20049;-80
2023/02/17 06:25:53;;;;;;;102.45;61.60;;;;;;;4.43;100.00;101865.91;5030923;28;20045;-79
2023/02/17 06:28:21;;;;;;;91.07;60.22;;;;;;;4.64;100.00;101878.91;5032875;28;20585;-79
2023/02/17 06:30:48;;;;;;;97.80;61.47;;;;;;;4.68;100.00;101875.03;5031750;28;20046;-80
2023/02/17 06:33:15;;;;;;;100.45;66.88;;;;;;;4.78;100.00;101881.09;5031385;28;20053;-80
2023/02/17 06:35:43;;;;;;;96.70;66.40;;;;;;;4.90;100.00;101879.16;5030129;28;20045;-80
2023/02/17 06:38:10;;;;;;;97.35;62.38;;;;;;;4.95;100.00;101876.94;5028821;28;20412;-80
2023/02/17 06:40:36;;;;;;;92.15;58.83;;;;;;;4.93;100.00;101877.09;5029956;28;20116;-80
2023/02/17 06:43:03;;;;;;;96.03;74.82;;;;;;;4.91;100.00;101883.47;5030297;28;20099;-79
2023/02/17 06:45:31;;;;;;;98.70;74.40;;;;;;;4.88;100.00;101881.13;4329299;28;10000755;-79
2023/02/17 06:47:58;;;;;;;101.43;77.07;;;;;;;4.91;100.00;101884.31;5025153;28;20057;-79
2023/02/17 06:50:25;;;;;;;101.53;69.55;;;;;;;5.09;100.00;101892.31;5024445;28;20054;-79
2023/02/17 06:52:51;;;;;;;100.50;67.72;;;;;;;5.42;100.00;101885.72;5026636;28;20107;-80
2023/02/17 06:55:18;;;;;;;96.38;65.32;;;;;;;5.61;100.00;101887.47;5027209;28;20053;-80
2023/02/17 06:57:45;;;;;;;99.68;68.60;;;;;;;5.74;100.00;101887.13;5029890;28;20493;-80
2023/02/17 07:00:12;;;;;;;93.75;64.85;;;;;;;5.69;100.00;101892.84;5031240;28;20049;-80
2023/02/17 07:02:41;;;;;;;96.88;67.05;;;;;;;5.69;100.00;101878.84;5029585;28;20095;-80
2023/02/17 07:05:08;;;;;;;84.15;60.03;;;;;;;5.78;100.00;101890.28;5031894;28;20123;-80
2023/02/17 07:07:35;;;;;;;92.28;71.20;;;;;;;5.82;100.00;101896.94;5030969;28;20099;-79
2023/02/17 07:10:02;;;;;;;99.13;69.18;;;;;;;6.28;100.00;101900.47;5030917;28;20102;-80
2023/02/17 07:12:29;;;;;;;86.65;60.40;;;;;;;6.38;100.00;101899.44;5030063;28;20049;-80
2023/02/17 07:14:56;;;;;;;89.63;61.13;;;;;;;5.91;100.00;101906.63;5031496;28;20511;-80
2023/02/17 07:17:23;;;;;;;71.22;54.03;;;;;;;5.70;100.00;101899.75;5030761;28;20526;-79
2023/02/17 07:19:51;;;;;;;80.70;61.53;;;;;;;5.75;100.00;101894.06;5030755;28;20046;-79
2023/02/17 07:22:18;;;;;;;90.20;63.00;;;;;;;6.33;100.00;101893.78;5035026;28;20466;-79
2023/02/17 07:24:45;;;;;;;86.25;63.63;;;;;;;6.46;100.00;101893.41;5035414;28;20103;-79
2023/02/17 07:27:11;;;;;;;85.15;61.80;;;;;;;6.28;100.00;101892.56;5017865;28;20540;-80
2023/02/17 07:29:38;;;;;;;76.13;54.95;;;;;;;5.80;100.00;101901.53;5035088;28;20104;-79
2023/02/17 07:32:05;;;;;;;76.53;52.95;;;;;;;6.13;100.00;101903.59;5034182;28;20107;-79
2023/02/17 07:34:31;;;;;;;71.97;50.88;;;;;;;5.93;100.00;101908.19;5035379;28;20511;-80
2023/02/17 07:36:59;;;;;;;91.68;61.63;;;;;;;6.35;100.00;101909.44;5036266;28;20099;-79
2023/02/17 07:39:26;;;;;;;91.40;60.67;;;;;;;6.15;100.00;101917.50;5034486;28;20107;-82
2023/02/17 07:41:53;;;;;;;73.50;53.50;;;;;;;6.03;100.00;101920.47;5035116;28;20442;-80
2023/02/17 07:44:20;;;;;;;85.65;62.85;;;;;;;6.24;100.00;101912.31;5035468;28;20502;-79
2023/02/17 07:46:46;;;;;;;84.43;60.42;;;;;;;6.26;100.00;101916.44;5035530;28;20057;-80
2023/02/17 07:49:13;;;;;;;84.40;56.55;;;;;;;6.02;100.00;101919.66;5034250;28;20099;-80
2023/02/17 07:51:40;;;;;;;90.40;65.50;;;;;;;6.36;100.00;101919.88;5034842;28;20053;-79
2023/02/17 07:54:08;;;;;;;84.75;63.28;;;;;;;6.69;100.00;101922.84;5034932;28;20091;-79
2023/02/17 07:56:35;;;;;;;74.10;57.85;;;;;;;6.79;100.00;101926.22;5034677;28;20045;-79
2023/02/17 07:59:01;;;;;;;62.40;56.10;;;;;;;6.09;100.00;101918.09;5035318;28;20045;-79
2023/02/17 08:01:28;;;;;;;84.45;67.18;;;;;;;6.81;100.00;101913.69;5034649;28;20042;-79
2023/02/17 08:03:56;;;;;;;74.40;62.35;;;;;;;6.74;100.00;101911.81;5035907;28;20111;-79
2023/02/17 08:06:25;;;;;;;77.13;68.78;;;;;;;6.78;100.00;101913.19;5034687;28;20050;-80
2023/02/17 08:14:25;;;;;;;68.45;58.40;;;;;;;6.83;100.00;101910.91;5034906;28;20130;-80
2023/02/17 08:16:52;;;;;;;75.93;64.32;;;;;;;6.86;100.00;101916.69;5034988;28;20045;-80
2023/02/17 08:19:19;;;;;;;78.38;60.97;;;;;;;7.45;100.00;101911.69;5034789;28;20042;-80
2023/02/17 08:21:46;;;;;;;75.38;53.83;;;;;;;7.66;100.00;101918.41;5034442;28;20050;-80
2023/02/17 08:24:15;;;;;;;70.30;50.00;;;;;;;7.68;100.00;101919.06;5034978;28;20053;-80
2023/02/17 08:26:43;;;;;;;76.22;59.95;;;;;;;7.57;100.00;101926.31;5034301;28;20071;-80
2023/02/17 08:29:10;;;;;;;66.13;46.28;;;;;;;7.66;100.00;101921.06;5034123;28;20469;-79
2023/02/17 08:31:37;;;;;;;70.03;50.20;;;;;;;7.71;100.00;101927.50;5033668;28;20049;-80
2023/02/17 08:34:06;;;;;;;71.55;49.63;;;;;;;8.39;100.00;101918.72;5034621;28;20041;-80
2023/02/17 08:36:36;;;;;;;61.75;53.40;;;;;;;7.94;100.00;101917.22;5034112;28;20491;-80
2023/02/17 08:39:04;;;;;;;72.70;64.80;;;;;;;7.44;100.00;101912.66;5034356;28;20052;-80
2023/02/17 08:41:33;;;;;;;69.45;54.08;;;;;;;8.27;100.00;101925.28;5034574;28;20049;-80
2023/02/17 08:44:03;;;;;;;62.67;48.72;;;;;;;8.04;100.00;101915.25;5034857;28;20423;-80
2023/02/17 08:46:30;;;;;;;68.43;56.25;;;;;;;9.42;100.00;101920.88;5035135;28;20119;-80
2023/02/17 08:48:57;;;;;;;52.22;47.22;;;;;;;8.27;100.00;101915.50;5034676;28;20057;-80
2023/02/17 08:51:25;;;;;;;66.85;52.47;;;;;;;8.53;100.00;101925.19;5034080;28;20049;-80
2023/02/17 08:53:54;;;;;;;62.90;51.13;;;;;;;8.88;100.00;101933.84;5033322;28;20556;-80
2023/02/17 08:56:20;;;;;;;48.67;43.42;;;;;;;7.60;100.00;101935.75;5034670;28;20443;-80
2023/02/17 08:58:48;;;;;;;71.57;53.28;;;;;;;8.83;100.00;101936.97;5032167;28;20049;-80
2023/02/17 09:01:17;;;;;;;64.65;50.78;;;;;;;10.00;100.00;101934.81;5033771;28;20045;-80
2023/02/17 09:03:44;;;;;;;66.72;52.17;;;;;;;9.39;100.00;101934.47;5033698;28;20100;-80
2023/02/17 09:06:12;;;;;;;65.00;46.47;;;;;;;8.33;100.00;101932.56;5034131;28;20522;-80
2023/02/17 09:08:39;;;;;;;69.13;49.10;;;;;;;10.11;100.00;101930.94;5034410;28;20052;-80
2023/02/17 09:11:07;;;;;;;66.22;46.72;;;;;;;9.89;100.00;101941.28;5034228;28;20579;-81
2023/02/17 09:13:34;;;;;;;55.08;43.30;;;;;;;10.18;100.00;101938.03;5033836;28;20049;-80
2023/02/17 09:16:01;;;;;;;57.42;43.90;;;;;;;9.82;100.00;101927.06;5031933;28;20049;-80
2023/02/17 09:18:29;;;;;;;64.53;52.17;;;;;;;10.51;100.00;101920.13;5033647;28;20056;-80
2023/02/17 09:20:57;;;;;;;57.83;45.40;;;;;;;10.48;100.00;101924.97;5032923;28;20092;-80
2023/02/17 09:23:24;;;;;;;58.28;48.15;;;;;;;9.98;100.00;101920.88;5033746;28;20045;-80
2023/02/17 09:25:50;;;;;;;49.75;43.35;;;;;;;8.94;100.00;101918.09;5033894;28;20486;-80
2023/02/17 09:28:17;;;;;;;68.28;45.45;;;;;;;10.15;100.00;101929.59;5031088;28;20049;-80
2023/02/17 09:30:47;;;;;;;50.35;34.08;;;;;;;8.55;100.00;101914.44;5033754;28;20490;-80
2023/02/17 09:33:13;;;;;;;62.97;48.97;;;;;;;10.63;100.00;101930.34;5032910;28;20118;-79
2023/02/17 09:35:43;;;;;;;52.08;46.17;;;;;;;11.13;100.00;101931.59;5032309;28;20057;-79
2023/02/17 09:38:10;;;;;;;61.25;54.92;;;;;;;10.28;100.00;101925.38;5031514;28;20049;-79
2023/02/17 09:40:43;;;;;;;56.67;45.72;;;;;;;9.39;100.00;101922.03;5027216;28;20123;-80
2023/02/17 09:43:14;;;;;;;54.85;48.83;;;;;;;10.52;100.00;101924.41;5031546;28;20107;-80
2023/02/17 09:45:44;;;;;;;59.95;50.35;;;;;;;10.41;100.00;101921.34;5032905;28;20114;-80
2023/02/17 09:48:15;;;;;;;59.25;50.95;;;;;;;10.80;100.00;101910.59;5033922;28;20115;-80
2023/02/17 09:50:50;;;;;;;61.33;49.50;;;;;;;10.59;100.00;101911.28;5033319;28;20045;-80
2023/02/17 09:53:25;;;;;;;53.53;43.25;;;;;;;11.04;100.00;101895.47;5033839;28;20051;-80
2023/02/17 09:55:54;;;;;;;66.85;54.40;;;;;;;11.95;100.00;101888.16;5033455;28;20049;-80
2023/02/17 09:58:26;;;;;;;65.40;58.38;;;;;;;13.28;100.00;101887.59;5033717;28;20049;-81
2023/02/17 10:00:55;;;;;;;54.85;42.47;;;;;;;12.07;100.00;101884.88;5033444;28;20107;-80
2023/02/17 10:03:29;;;;;;;62.47;46.05;;;;;;;13.22;100.00;101881.19;5032347;28;20103;-80
2023/02/17 10:06:11;;;;;;;49.50;39.70;;;;;;;12.18;100.00;101877.38;5033302;28;20422;-80
2023/02/17 10:08:43;;;;;;;59.53;42.53;;;;;;;12.55;100.00;101881.66;5032696;28;20505;-80
2023/02/17 10:11:18;;;;;;;62.08;45.63;;;;;;;11.56;100.00;101878.63;5032923;28;20399;-80
2023/02/17 10:13:46;;;;;;;52.83;41.88;;;;;;;10.38;100.00;101885.34;5031299;28;20055;-79
2023/02/17 10:16:22;;;;;;;49.80;36.65;;;;;;;12.00;100.00;101883.13;5032504;28;20063;-80
2023/02/17 10:18:57;;;;;;;56.35;43.47;;;;;;;14.21;100.00;101877.34;5031211;28;20053;-80
2023/02/17 10:21:31;;;;;;;54.20;42.05;;;;;;;11.91;97.53;101869.09;5032017;28;20049;-79
2023/02/17 10:23:57;;;;;;;52.95;39.20;;;;;;;12.75;100.00;101863.19;5029922;28;20096;-80
2023/02/17 10:26:43;;;;;;;56.17;40.40;;;;;;;13.77;88.36;101862.63;5032961;28;20110;-80
2023/02/17 10:29:19;;;;;;;49.58;39.05;;;;;;;12.89;96.94;101854.28;5032874;28;20049;-79
2023/02/17 10:31:48;;;;;;;55.20;39.28;;;;;;;11.47;97.25;101846.00;5032183;28;20049;-79
2023/02/17 10:34:28;;;;;;;59.25;40.90;;;;;;;12.58;91.64;101850.09;5032836;28;20061;-79
2023/02/17 10:37:01;;;;;;;37.90;30.30;;;;;;;10.71;90.56;101838.13;5031790;28;20119;-79
2023/02/17 10:39:44;;;;;;;39.83;31.95;;;;;;;11.46;100.00;101839.81;5032568;28;20392;-79
2023/02/17 10:42:14;;;;;;;;;;;;;;;11.81;100.00;101845.41;5032381;28;20115;-80
2023/02/17 10:44:41;;;;;;;49.08;39.28;;;;;;;12.00;97.18;101843.19;5031997;28;19979;-79
2023/02/17 10:47:10;;;;;;;44.47;37.55;;;;;;;12.12;99.08;101842.50;5032823;28;20041;-79
2023/02/17 10:49:42;;;;;;;52.83;40.72;;;;;;;12.08;95.09;101843.91;5031534;28;20485;-79
2023/02/17 10:52:14;;;;;;;49.30;41.20;;;;;;;13.14;93.47;101838.66;5031880;28;20135;-80
2023/02/17 10:54:46;;;;;;;50.38;38.78;;;;;;;12.72;86.44;101835.06;5031647;28;20045;-80
2023/02/17 10:57:14;;;;;;;50.40;36.90;;;;;;;11.23;97.91;101839.94;5032114;28;20056;-79
2023/02/17 10:59:44;;;;;;;52.17;40.53;;;;;;;12.47;95.30;101833.84;5032548;28;20419;-79
2023/02/17 11:02:18;;;;;;;47.28;39.20;;;;;;;12.71;94.33;101824.59;5032066;28;20054;-80
2023/02/17 11:04:47;;;;;;;48.15;42.90;;;;;;;13.36;84.39;101827.94;5029195;28;20041;-79
2023/02/17 11:07:17;;;;;;;44.70;37.63;;;;;;;11.84;91.07;101833.56;5031349;28;20534;-80
2023/02/17 11:09:50;;;;;;;43.85;39.08;;;;;;;12.14;94.67;101821.84;5031558;28;20527;-79
2023/02/17 11:12:22;;;;;;;47.72;39.65;;;;;;;12.01;97.96;101831.50;5031897;28;20525;-79